Time;durP1;ratioP1;P1;durP2;ratioP2;P2;SDS_P1;SDS_P2;PMS_P1;PMS_P2;Temp;Humidity;BMP_temperature;BMP_pressure;BME280_temperature;BME280_humidity;BME280_pressure;Samples;Min_cycle;Max_cycle;Signal;HPM_P1;HPM_P2
2023/10/14 00:02:08;;;;;;;8.02;1.42;;;;;;;13.29;100.00;99879.06;4931696;28;20051;-76
2023/10/14 00:04:36;;;;;;;10.40;1.20;;;;;;;13.25;100.00;99878.28;4924183;28;20044;-76
2023/10/14 00:07:08;;;;;;;3.95;1.20;;;;;;;13.21;100.00;99879.25;4886428;28;20054;-76
2023/10/14 00:09:49;;;;;;;10.38;1.80;;;;;;;13.19;100.00;99881.94;4922073;28;20046;-77
2023/10/14 00:12:17;;;;;;;;;;;;;;;13.17;100.00;99889.03;4937341;28;24012;-76
2023/10/14 00:14:44;;;;;;;10.77;1.42;;;;;;;13.16;100.00;99903.19;4939006;28;19922;-77
2023/10/14 00:17:16;;;;;;;4.32;1.38;;;;;;;13.14;100.00;99897.06;4921113;28;20501;-76
2023/10/14 00:19:49;;;;;;;8.10;1.35;;;;;;;13.09;100.00;99906.88;4955742;28;20042;-76
2023/10/14 00:22:20;;;;;;;7.15;1.30;;;;;;;13.01;100.00;99909.69;4885292;28;20146;-76
2023/10/14 00:24:52;;;;;;;8.18;1.58;;;;;;;12.94;100.00;99923.94;4948677;28;20046;-76
2023/10/14 00:27:21;;;;;;;9.00;1.45;;;;;;;12.89;100.00;99925.78;4930651;28;20065;-76
2023/10/14 00:29:50;;;;;;;7.53;1.42;;;;;;;12.85;100.00;99927.66;4937785;28;20062;-76
2023/10/14 00:32:18;;;;;;;4.30;2.13;;;;;;;12.82;100.00;99938.28;4930204;28;20066;-75
2023/10/14 00:34:45;;;;;;;14.23;2.15;;;;;;;12.81;100.00;99946.25;4936625;28;20050;-77
2023/10/14 00:37:13;;;;;;;10.18;1.80;;;;;;;12.77;100.00;99945.44;4883791;28;20059;-77
2023/10/14 00:39:40;;;;;;;8.18;1.77;;;;;;;12.75;100.00;99946.38;4948348;28;20062;-77
2023/10/14 00:42:08;;;;;;;8.40;1.73;;;;;;;12.71;100.00;99947.34;4919835;28;20066;-77
2023/10/14 00:44:38;;;;;;;13.82;3.05;;;;;;;12.67;100.00;99960.59;4927649;28;20051;-77
2023/10/14 00:47:08;;;;;;;11.13;2.17;;;;;;;12.62;100.00;99969.53;4914621;28;20054;-77
2023/10/14 00:49:38;;;;;;;10.17;2.10;;;;;;;12.57;100.00;99966.97;4921566;28;20313;-77
2023/10/14 00:52:11;;;;;;;13.40;2.10;;;;;;;12.55;100.00;99970.53;4961616;28;20042;-77
2023/10/14 00:59:54;;;;;;;10.48;2.47;;;;;;;12.36;100.00;99981.47;4915229;28;20058;-77
2023/10/14 01:02:31;;;;;;;6.45;1.70;;;;;;;12.31;100.00;99985.09;4939996;28;20416;-77
2023/10/14 01:05:10;;;;;;;12.50;2.20;;;;;;;12.25;100.00;99989.56;4935621;28;20054;-77
2023/10/14 01:07:39;;;;;;;7.90;1.88;;;;;;;12.21;100.00;99998.47;4939730;28;20057;-76
2023/10/14 01:10:11;;;;;;;8.80;2.28;;;;;;;12.18;100.00;99998.50;4900387;28;20637;-77
2023/10/14 01:12:51;;;;;;;13.10;2.40;;;;;;;12.14;100.00;100014.44;4937410;28;20392;-77
2023/10/14 01:15:22;;;;;;;7.25;2.03;;;;;;;12.07;100.00;100014.50;4943794;28;20051;-77
2023/10/14 01:17:53;;;;;;;12.32;2.78;;;;;;;11.98;100.00;100017.28;4935305;28;20049;-77
2023/10/14 01:23:00;;;;;;;11.70;2.60;;;;;;;11.81;100.00;100019.28;4967540;28;20050;-77
2023/10/14 01:25:32;;;;;;;8.05;2.67;;;;;;;11.75;100.00;100024.69;4912099;28;20535;-77
2023/10/14 01:28:11;;;;;;;8.23;2.08;;;;;;;11.71;100.00;100027.34;4942365;28;20051;-76
2023/10/14 01:30:55;;;;;;;9.32;2.40;;;;;;;11.65;100.00;100034.50;4939472;28;20054;-76
2023/10/14 01:33:25;;;;;;;9.27;2.30;;;;;;;11.59;100.00;100046.00;4962049;28;20053;-77
2023/10/14 01:35:53;;;;;;;7.38;1.95;;;;;;;11.58;100.00;100051.31;4930820;28;20053;-77
2023/10/14 01:38:23;;;;;;;11.63;2.80;;;;;;;11.49;100.00;100054.94;4942778;28;20038;-77
2023/10/14 01:40:52;;;;;;;;;;;;;;;11.45;100.00;100055.88;4887661;29;20058;-77
2023/10/14 01:43:24;;;;;;;12.52;2.38;;;;;;;11.41;100.00;100051.53;4956146;28;20335;-77
2023/10/14 01:48:25;;;;;;;13.30;3.47;;;;;;;11.29;100.00;100053.44;4958409;28;20050;-77
2023/10/14 01:50:54;;;;;;;16.20;2.65;;;;;;;11.26;100.00;100068.41;4959126;28;20059;-77
2023/10/14 01:53:27;;;;;;;16.63;3.03;;;;;;;11.21;100.00;100059.69;4938239;28;20054;-76
2023/10/14 01:56:01;;;;;;;10.70;2.15;;;;;;;11.19;100.00;100064.09;4929990;28;20055;-77
2023/10/14 01:58:32;;;;;;;8.43;2.00;;;;;;;11.16;100.00;100066.78;4934264;28;20047;-77
2023/10/14 02:03:41;;;;;;;10.95;2.92;;;;;;;11.04;100.00;100070.41;4943863;28;20058;-77
2023/10/14 02:06:16;;;;;;;15.13;2.25;;;;;;;11.00;100.00;100076.63;4964272;28;20054;-77
2023/10/14 02:08:52;;;;;;;9.88;2.47;;;;;;;10.95;100.00;100076.69;4937227;28;20046;-77
2023/10/14 02:11:20;;;;;;;12.45;2.38;;;;;;;10.92;100.00;100084.59;4891149;28;20050;-77
2023/10/14 02:13:51;;;;;;;13.20;2.58;;;;;;;10.88;100.00;100083.75;4949902;28;20074;-77
2023/10/14 02:16:40;;;;;;;10.50;2.33;;;;;;;10.86;100.00;100089.94;4937285;28;20906;-77
2023/10/14 02:19:20;;;;;;;9.77;2.33;;;;;;;10.86;100.00;100101.34;4935951;28;20055;-77
2023/10/14 02:21:49;;;;;;;6.75;1.90;;;;;;;10.87;100.00;100103.13;4944191;29;20389;-77
2023/10/14 02:24:18;;;;;;;12.00;2.22;;;;;;;10.84;100.00;100108.41;4936548;28;20049;-77
2023/10/14 02:26:48;;;;;;;13.68;2.33;;;;;;;10.81;100.00;100102.28;4965688;28;20389;-77
2023/10/14 02:29:16;;;;;;;7.03;2.53;;;;;;;10.79;100.00;100120.75;4896489;28;20046;-77
2023/10/14 02:31:46;;;;;;;8.93;2.38;;;;;;;10.78;100.00;100124.28;4935752;28;20043;-77
2023/10/14 02:34:15;;;;;;;15.90;2.75;;;;;;;10.77;100.00;100129.56;4935873;28;20057;-77
2023/10/14 02:36:48;;;;;;;11.07;2.33;;;;;;;10.76;100.00;100131.34;4947037;28;20125;-77
2023/10/14 02:39:25;;;;;;;16.77;2.55;;;;;;;10.78;100.00;100140.09;4947902;28;24745;-77
2023/10/14 02:42:07;;;;;;;7.35;2.25;;;;;;;10.75;100.00;100141.88;4948571;28;20389;-77
2023/10/14 02:44:48;;;;;;;12.30;2.35;;;;;;;10.73;100.00;100136.63;4906297;28;20428;-77
2023/10/14 02:47:17;;;;;;;11.60;2.13;;;;;;;10.69;100.00;100148.94;4930483;28;20066;-77
2023/10/14 02:49:56;;;;;;;16.33;2.30;;;;;;;10.66;100.00;100156.91;4913875;28;20061;-77
2023/10/14 02:52:29;;;;;;;8.43;2.47;;;;;;;10.62;100.00;100163.06;4919873;29;20295;-77
2023/10/14 02:57:47;;;;;;;13.90;2.25;;;;;;;10.59;100.00;100180.69;4936909;28;20132;-77
2023/10/14 03:00:29;;;;;;;12.70;2.17;;;;;;;10.59;100.00;100185.94;4915795;28;20421;-77
2023/10/14 03:03:03;;;;;;;8.68;2.25;;;;;;;10.55;100.00;100195.63;4923514;28;20058;-77
2023/10/14 03:05:36;;;;;;;10.30;2.70;;;;;;;10.52;100.00;100203.53;4900261;28;20051;-77
2023/10/14 03:08:09;;;;;;;13.07;2.10;;;;;;;10.47;100.00;100200.94;4946074;28;20046;-77
2023/10/14 03:10:39;;;;;;;8.00;2.03;;;;;;;10.41;100.00;100203.59;4938026;28;20062;-77
2023/10/14 03:13:11;;;;;;;25.08;2.28;;;;;;;10.34;100.00;100213.31;4960851;28;20047;-77
2023/10/14 03:15:44;;;;;;;13.82;2.42;;;;;;;10.27;100.00;100213.34;4889335;28;20053;-76
2023/10/14 03:18:16;;;;;;;12.30;1.77;;;;;;;10.23;100.00;100214.25;4918248;28;20042;-77
2023/10/14 03:23:23;;;;;;;10.85;2.55;;;;;;;10.14;100.00;100236.22;4939582;28;20550;-77
2023/10/14 03:26:14;;;;;;;12.75;2.83;;;;;;;10.09;100.00;100240.63;4963534;28;20046;-77
2023/10/14 03:28:45;;;;;;;14.82;2.60;;;;;;;10.04;100.00;100245.91;4938676;28;20061;-77
2023/10/14 03:31:17;;;;;;;12.02;2.33;;;;;;;9.99;100.00;100254.72;4903811;28;20049;-77
2023/10/14 03:33:46;;;;;;;7.15;1.60;;;;;;;9.94;100.00;100257.34;4955765;28;20042;-77
2023/10/14 03:36:17;;;;;;;16.40;2.65;;;;;;;9.91;100.00;100260.00;4933892;28;20808;-77
2023/10/14 03:38:58;;;;;;;14.70;2.92;;;;;;;9.88;100.00;100265.25;4965895;28;20515;-77
2023/10/14 03:41:29;;;;;;;9.68;1.52;;;;;;;9.85;100.00;100273.16;4955311;28;24161;-77
2023/10/14 03:49:11;;;;;;;16.33;2.30;;;;;;;9.84;100.00;100289.84;4935338;28;20051;-77
2023/10/14 03:51:39;;;;;;;10.07;2.05;;;;;;;9.84;100.00;100289.84;4928524;28;20062;-77
2023/10/14 03:54:12;;;;;;;13.38;2.40;;;;;;;9.84;100.00;100293.34;4951286;28;20504;-77
2023/10/14 03:56:50;;;;;;;10.85;2.78;;;;;;;9.85;100.00;100308.28;4965230;28;20054;-77
2023/10/14 03:59:22;;;;;;;11.77;2.30;;;;;;;9.86;100.00;100311.78;4956179;28;20049;-77
2023/10/14 04:01:58;;;;;;;13.45;2.05;;;;;;;9.85;100.00;100304.75;4910174;28;20047;-77
2023/10/14 04:04:28;;;;;;;12.23;1.65;;;;;;;9.84;100.00;100318.78;4934971;28;20503;-77
2023/10/14 04:09:44;;;;;;;13.00;2.28;;;;;;;9.84;100.00;100334.59;4946980;28;20054;-77
2023/10/14 04:12:30;;;;;;;15.40;3.45;;;;;;;9.86;100.00;100338.09;4905055;28;20057;-77
2023/10/14 04:15:15;;;;;;;11.73;2.20;;;;;;;9.87;100.00;100338.09;4962725;28;20046;-77
2023/10/14 04:17:48;;;;;;;10.63;2.08;;;;;;;9.89;100.00;100346.84;4885706;28;20042;-77
2023/10/14 04:20:22;;;;;;;11.40;2.92;;;;;;;9.92;100.00;100352.13;4934082;28;20066;-77
2023/10/14 04:22:53;;;;;;;18.45;2.88;;;;;;;9.93;100.00;100360.88;4934175;28;20046;-77
2023/10/14 04:25:24;;;;;;;17.20;2.40;;;;;;;9.93;100.00;100368.78;4944184;28;20732;-77
2023/10/14 04:30:31;;;;;;;9.68;3.00;;;;;;;9.94;100.00;100368.78;4958646;28;20069;-77
2023/10/14 04:35:33;;;;;;;11.43;2.90;;;;;;;9.94;100.00;100370.53;4949404;28;20057;-77
2023/10/14 04:38:17;;;;;;;12.77;2.63;;;;;;;9.92;100.00;100369.66;4934191;28;20520;-77
2023/10/14 04:40:53;;;;;;;16.63;2.35;;;;;;;9.93;100.00;100384.56;4947480;28;20066;-77
2023/10/14 04:45:55;;;;;;;11.73;2.13;;;;;;;9.86;100.00;100390.72;4945869;28;20047;-77
2023/10/14 04:48:35;;;;;;;7.85;1.92;;;;;;;9.82;100.00;100387.22;4897851;28;20423;-77
2023/10/14 04:51:09;;;;;;;13.50;2.55;;;;;;;9.79;100.00;100392.47;4938927;28;20055;-77
2023/10/14 04:53:43;;;;;;;12.48;2.50;;;;;;;9.77;100.00;100399.47;4953719;28;20030;-77
2023/10/14 04:56:10;;;;;;;15.50;3.10;;;;;;;9.75;100.00;100406.50;4925861;28;20061;-77
2023/10/14 04:58:41;;;;;;;13.68;2.22;;;;;;;9.73;100.00;100416.16;4924245;28;20420;-77
2023/10/14 05:01:09;;;;;;;12.57;2.03;;;;;;;9.72;100.00;100423.19;4954321;28;20066;-77
2023/10/14 05:03:37;;;;;;;15.50;2.58;;;;;;;9.71;100.00;100416.16;4923658;28;20043;-77
2023/10/14 05:08:55;;;;;;;15.80;2.50;;;;;;;9.78;100.00;100429.34;4924417;28;20492;-77
2023/10/14 05:11:25;;;;;;;10.07;2.35;;;;;;;9.81;100.00;100432.84;4918145;28;20061;-77
2023/10/14 05:14:07;;;;;;;15.23;2.67;;;;;;;9.86;100.00;100424.94;4942038;28;20058;-76
2023/10/14 05:17:03;;;;;;;10.20;2.38;;;;;;;9.88;100.00;100437.19;4942422;28;20480;-77
2023/10/14 05:19:35;;;;;;;12.40;2.72;;;;;;;9.91;100.00;100441.59;4905381;28;20411;-77
2023/10/14 05:22:10;;;;;;;13.95;2.17;;;;;;;9.93;100.00;100448.63;4933152;28;20054;-77
2023/10/14 05:24:48;;;;;;;13.57;1.80;;;;;;;9.92;100.00;100446.88;4937975;28;20408;-77
2023/10/14 05:27:19;;;;;;;11.57;2.17;;;;;;;9.91;100.00;100454.75;4931529;28;20050;-77
2023/10/14 05:29:51;;;;;;;6.53;1.70;;;;;;;9.89;100.00;100467.06;4943953;28;20381;-77
2023/10/14 05:32:30;;;;;;;9.63;1.70;;;;;;;9.86;100.00;100467.03;4940613;28;20046;-77
2023/10/14 05:34:59;;;;;;;14.07;1.80;;;;;;;9.85;100.00;100475.78;4921517;28;20046;-77
2023/10/14 05:37:26;;;;;;;12.30;1.80;;;;;;;9.83;100.00;100475.81;4947716;28;20058;-77
2023/10/14 05:39:57;;;;;;;8.63;1.75;;;;;;;9.83;100.00;100485.44;4953324;28;20144;-77
2023/10/14 05:42:24;;;;;;;11.07;1.63;;;;;;;9.81;100.00;100482.84;4932426;28;20051;-77
2023/10/14 05:45:01;;;;;;;5.30;1.45;;;;;;;9.80;100.00;100496.00;4946174;28;20460;-77
2023/10/14 05:47:29;;;;;;;10.85;1.95;;;;;;;9.81;100.00;100503.00;4947800;28;20393;-77
2023/10/14 05:49:56;;;;;;;13.43;2.53;;;;;;;9.79;100.00;100508.25;4904106;28;20057;-76
2023/10/14 05:52:24;;;;;;;11.73;1.77;;;;;;;9.78;100.00;100517.03;4929722;28;20514;-77
2023/10/14 05:54:52;;;;;;;8.35;1.80;;;;;;;9.71;100.00;100518.78;4935717;28;20051;-77
2023/10/14 05:57:22;;;;;;;9.73;1.70;;;;;;;9.69;100.00;100530.19;4932895;28;20066;-77
2023/10/14 05:59:50;;;;;;;10.75;2.10;;;;;;;9.66;100.00;100536.31;4947588;28;20488;-76
2023/10/14 06:02:17;;;;;;;9.70;1.60;;;;;;;9.65;100.00;100541.56;4910977;29;20048;-77
2023/10/14 06:04:45;;;;;;;11.32;1.92;;;;;;;9.63;100.00;100552.09;4932966;28;20058;-77
2023/10/14 06:07:14;;;;;;;14.02;2.80;;;;;;;9.62;100.00;100555.63;4896478;28;20077;-77
2023/10/14 06:09:48;;;;;;;6.45;1.52;;;;;;;9.61;100.00;100558.22;4923821;28;20051;-77
2023/10/14 06:12:18;;;;;;;12.60;2.80;;;;;;;9.60;100.00;100559.09;4934046;28;20847;-77
2023/10/14 06:14:46;;;;;;;8.98;2.30;;;;;;;9.60;100.00;100559.09;4933594;28;20047;-77
2023/10/14 06:17:14;;;;;;;13.52;2.47;;;;;;;9.60;100.00;100559.97;4902358;28;20062;-77
2023/10/14 06:19:43;;;;;;;9.13;2.00;;;;;;;9.61;100.00;100571.38;4931800;28;20062;-77
2023/10/14 06:22:13;;;;;;;20.58;2.50;;;;;;;9.60;100.00;100575.75;4902351;28;20053;-77
2023/10/14 06:24:44;;;;;;;9.30;2.08;;;;;;;9.58;100.00;100582.75;4947603;28;20069;-77
2023/10/14 06:27:20;;;;;;;12.20;2.78;;;;;;;9.59;100.00;100589.78;4915128;28;20050;-77
2023/10/14 06:29:49;;;;;;;9.20;2.13;;;;;;;9.60;100.00;100594.16;4932181;28;20148;-77
2023/10/14 06:32:18;;;;;;;10.18;2.30;;;;;;;9.60;100.00;100602.06;4946040;28;20076;-77
2023/10/14 06:34:57;;;;;;;11.88;2.47;;;;;;;9.61;100.00;100616.97;4932892;28;20411;-77
2023/10/14 06:37:27;;;;;;;10.98;2.13;;;;;;;9.64;100.00;100614.38;4950402;28;20200;-77
2023/10/14 06:39:56;;;;;;;11.63;2.72;;;;;;;9.65;100.00;100610.84;4948006;28;20047;-77
2023/10/14 06:42:26;;;;;;;12.18;2.15;;;;;;;9.67;100.00;100622.25;4918409;28;20701;-77
2023/10/14 06:44:54;;;;;;;16.33;2.72;;;;;;;9.69;100.00;100628.41;4947076;28;20050;-76
2023/10/14 06:47:22;;;;;;;15.40;2.40;;;;;;;9.75;100.00;100640.69;4962305;28;20051;-76
2023/10/14 06:49:50;;;;;;;12.73;2.40;;;;;;;9.78;100.00;100640.72;4896919;28;20051;-76
2023/10/14 06:52:18;;;;;;;10.38;2.00;;;;;;;9.85;100.00;100654.75;4918367;28;20420;-78
2023/10/14 06:54:47;;;;;;;19.00;2.60;;;;;;;9.95;100.00;100660.06;4948852;28;20039;-78
2023/10/14 06:57:16;;;;;;;9.45;2.55;;;;;;;10.05;100.00;100663.59;4917622;28;20463;-78
2023/10/14 06:59:45;;;;;;;17.33;2.65;;;;;;;10.15;100.00;100669.75;4932906;28;20055;-78
2023/10/14 07:02:13;;;;;;;28.65;2.65;;;;;;;10.21;100.00;100677.69;4963030;28;20473;-78
2023/10/14 07:04:41;;;;;;;13.05;2.42;;;;;;;10.26;100.00;100693.47;4906925;28;20050;-78
2023/10/14 07:07:09;;;;;;;15.93;2.45;;;;;;;10.30;100.00;100695.25;4875591;28;20051;-78
2023/10/14 07:09:39;;;;;;;9.35;2.03;;;;;;;10.30;100.00;100696.19;4913672;29;20078;-78
2023/10/14 07:12:15;;;;;;;13.02;2.67;;;;;;;10.31;100.00;100687.38;4912122;28;20518;-77
2023/10/14 07:14:44;;;;;;;14.90;2.00;;;;;;;10.37;100.00;100704.94;4923173;29;20047;-77
2023/10/14 07:17:23;;;;;;;11.20;3.10;;;;;;;10.40;100.00;100712.00;4896005;29;20043;-77
2023/10/14 07:19:50;;;;;;;7.50;2.50;;;;;;;10.47;100.00;100712.00;4924230;29;20062;-77
2023/10/14 07:22:21;;;;;;;8.45;2.05;;;;;;;10.57;100.00;100707.63;4863585;28;20055;-77
2023/10/14 07:24:51;;;;;;;8.60;2.03;;;;;;;10.65;100.00;100702.38;4912650;29;20047;-77
2023/10/14 07:27:20;;;;;;;9.30;2.30;;;;;;;10.69;100.00;100715.53;4910627;29;20055;-77
2023/10/14 07:29:48;;;;;;;10.20;1.95;;;;;;;10.68;100.00;100707.63;4915490;28;20051;-77
2023/10/14 07:32:15;;;;;;;12.38;2.45;;;;;;;10.69;100.00;100709.38;4911514;29;20059;-77
2023/10/14 07:34:43;;;;;;;11.00;2.72;;;;;;;10.72;100.00;100715.53;4933858;29;20433;-77
2023/10/14 07:37:13;;;;;;;10.35;2.00;;;;;;;10.78;100.00;100717.31;4896681;28;20389;-77
2023/10/14 07:39:40;;;;;;;9.63;2.30;;;;;;;10.81;100.00;100727.84;4897903;29;20051;-77
2023/10/14 07:42:13;;;;;;;15.85;2.25;;;;;;;10.88;100.00;100726.94;4926121;29;20054;-78
2023/10/14 07:44:41;;;;;;;10.98;2.30;;;;;;;10.96;100.00;100742.75;4912837;29;20068;-78
2023/10/14 07:47:10;;;;;;;7.95;2.20;;;;;;;11.04;100.00;100730.47;4908853;29;20054;-77
2023/10/14 07:49:38;;;;;;;10.40;1.80;;;;;;;11.16;100.00;100726.94;4912227;29;20078;-77
2023/10/14 07:52:14;;;;;;;13.00;2.60;;;;;;;11.30;100.00;100726.91;4866609;28;20050;-77
2023/10/14 07:54:42;;;;;;;13.60;2.25;;;;;;;11.40;100.00;100730.41;4928669;29;20047;-78
2023/10/14 07:57:13;;;;;;;7.32;1.70;;;;;;;11.52;100.00;100730.41;4942378;29;20043;-78
2023/10/14 07:59:41;;;;;;;13.55;3.25;;;;;;;11.69;100.00;100744.41;4933247;28;20051;-78
2023/10/14 08:02:10;;;;;;;12.70;2.63;;;;;;;11.89;100.00;100746.13;4925300;29;20047;-78
2023/10/14 08:04:37;;;;;;;8.73;2.70;;;;;;;12.07;100.00;100756.63;4904168;28;20051;-78
2023/10/14 08:07:07;;;;;;;9.98;2.00;;;;;;;12.33;100.00;100760.91;4915184;28;20061;-78
2023/10/14 08:09:39;;;;;;;15.55;2.55;;;;;;;12.56;100.00;100762.56;4914730;28;20046;-78
2023/10/14 08:12:06;;;;;;;9.88;2.60;;;;;;;12.62;100.00;100759.84;4924078;28;20377;-78
2023/10/14 08:14:34;;;;;;;5.13;1.70;;;;;;;12.73;100.00;100765.94;4900406;28;20031;-78
2023/10/14 08:17:01;;;;;;;7.18;2.15;;;;;;;12.96;100.00;100767.56;4916090;28;20046;-78
2023/10/14 08:19:31;;;;;;;12.75;3.15;;;;;;;13.12;100.00;100771.84;4920126;28;20062;-78
2023/10/14 08:21:58;;;;;;;7.20;2.93;;;;;;;13.30;100.00;100780.50;4932244;28;20050;-78
2023/10/14 08:24:26;;;;;;;9.43;2.42;;;;;;;13.50;100.00;100778.56;4849124;28;20676;-78
2023/10/14 08:26:53;;;;;;;8.40;2.03;;;;;;;13.65;100.00;100778.41;4937822;28;20061;-78
2023/10/14 08:29:21;;;;;;;11.77;2.38;;;;;;;13.76;100.00;100790.66;4930173;28;20051;-78
2023/10/14 08:31:53;;;;;;;10.90;1.92;;;;;;;13.85;100.00;100793.19;4904855;28;20062;-78
2023/10/14 08:34:24;;;;;;;8.55;1.98;;;;;;;13.97;100.00;100787.78;4924108;28;20488;-78
2023/10/14 08:36:51;;;;;;;9.85;1.80;;;;;;;14.07;100.00;100779.72;4948978;28;20058;-78
2023/10/14 08:39:23;;;;;;;7.65;2.17;;;;;;;14.16;100.00;100784.91;4900774;28;20055;-77
2023/10/14 08:41:57;;;;;;;8.82;1.92;;;;;;;14.19;100.00;100800.75;4940071;28;20046;-78
2023/10/14 08:44:27;;;;;;;6.93;2.20;;;;;;;14.15;100.00;100805.22;4937257;28;20051;-77
2023/10/14 08:46:55;;;;;;;4.97;1.60;;;;;;;13.94;100.00;100816.94;4940914;28;20066;-77
2023/10/14 08:49:26;;;;;;;9.73;2.10;;;;;;;13.72;100.00;100818.06;4927202;28;20046;-77
2023/10/14 08:51:55;;;;;;;13.93;2.20;;;;;;;13.62;100.00;100823.44;4917517;28;20058;-77
2023/10/14 08:54:24;;;;;;;9.48;2.25;;;;;;;13.58;100.00;100816.44;4917552;28;20053;-77
2023/10/14 08:56:52;;;;;;;11.03;2.67;;;;;;;13.60;100.00;100819.06;4927814;28;20572;-77
2023/10/14 08:59:22;;;;;;;8.10;2.15;;;;;;;13.64;100.00;100826.09;4924558;28;20298;-77
2023/10/14 09:01:56;;;;;;;6.93;1.83;;;;;;;13.64;100.00;100829.59;4930631;28;20496;-77
2023/10/14 09:04:28;;;;;;;8.52;1.88;;;;;;;13.62;100.00;100831.38;4932219;28;20057;-77
2023/10/14 09:07:04;;;;;;;10.82;1.90;;;;;;;13.60;100.00;100830.53;4941546;28;20055;-79
2023/10/14 09:09:32;;;;;;;6.13;1.40;;;;;;;13.61;100.00;100837.59;4948349;28;20463;-78
2023/10/14 09:12:13;;;;;;;8.15;1.85;;;;;;;13.57;100.00;100838.53;4860476;28;20504;-79
2023/10/14 09:14:42;;;;;;;7.90;1.52;;;;;;;13.57;100.00;100849.09;4910959;28;20492;-77
2023/10/14 09:17:10;;;;;;;8.30;1.63;;;;;;;13.55;100.00;100844.69;4926461;28;20802;-78
2023/10/14 09:19:47;;;;;;;9.80;1.50;;;;;;;13.53;100.00;100849.13;4945822;28;20051;-77
2023/10/14 09:22:29;;;;;;;5.75;1.27;;;;;;;13.54;100.00;100850.91;4933228;28;20409;-77
2023/10/14 09:25:00;;;;;;;7.15;1.40;;;;;;;13.60;100.00;100859.66;4947208;28;20047;-77
2023/10/14 09:27:30;;;;;;;;;;;;;;;13.71;100.00;100861.34;4896197;28;20070;-77
2023/10/14 09:29:58;;;;;;;7.60;1.48;;;;;;;13.88;100.00;100862.03;4913335;28;19934;-77
2023/10/14 09:32:27;;;;;;;10.05;2.05;;;;;;;13.93;100.00;100889.38;4902068;28;20058;-77
2023/10/14 09:34:57;;;;;;;8.15;1.48;;;;;;;13.60;100.00;100883.47;4931360;28;20806;-77
2023/10/14 09:37:25;;;;;;;9.18;2.00;;;;;;;13.21;100.00;100896.13;4950449;28;20051;-77
2023/10/14 09:40:00;;;;;;;7.30;1.45;;;;;;;12.85;100.00;100895.47;4916485;28;20051;-77
2023/10/14 09:42:32;;;;;;;11.90;1.90;;;;;;;12.56;100.00;100898.22;4899747;28;20050;-77
2023/10/14 09:45:10;;;;;;;11.07;1.63;;;;;;;12.36;100.00;100908.00;4956199;28;20038;-78
2023/10/14 09:47:45;;;;;;;10.68;1.85;;;;;;;12.28;100.00;100903.59;4932075;28;20059;-77
2023/10/14 09:50:15;;;;;;;3.35;1.25;;;;;;;12.33;100.00;100906.25;4925147;28;20043;-77
2023/10/14 09:52:42;;;;;;;5.95;1.58;;;;;;;12.45;100.00;100902.69;4927491;28;20105;-77
2023/10/14 09:55:14;;;;;;;7.85;1.83;;;;;;;12.54;100.00;100900.00;4938111;28;20355;-77
2023/10/14 09:57:45;;;;;;;9.27;1.80;;;;;;;12.68;100.00;100898.19;4880357;28;20058;-77
2023/10/14 10:00:16;;;;;;;7.65;1.90;;;;;;;12.82;100.00;100895.47;4938407;28;20082;-77
2023/10/14 10:02:49;;;;;;;12.52;1.95;;;;;;;13.00;100.00;100906.81;4920624;28;20043;-78
2023/10/14 10:05:41;;;;;;;9.80;1.70;;;;;;;13.03;100.00;100920.91;4954759;28;20054;-78
2023/10/14 10:08:24;;;;;;;9.68;2.05;;;;;;;12.99;100.00;100923.59;4950059;28;20417;-78
2023/10/14 10:10:53;;;;;;;3.10;0.90;;;;;;;12.97;100.00;100922.72;4938347;28;20054;-78
2023/10/14 10:13:23;;;;;;;5.10;1.20;;;;;;;12.97;100.00;100922.72;4904901;28;20519;-78
2023/10/14 10:15:51;;;;;;;1.85;0.90;;;;;;;12.99;100.00;100931.53;4938333;28;20058;-81
2023/10/14 10:18:22;;;;;;;3.40;1.13;;;;;;;13.03;100.00;100934.16;4936664;28;20412;-78
2023/10/14 10:20:55;;;;;;;2.67;0.70;;;;;;;13.11;100.00;100933.22;4917508;28;21026;-77
2023/10/14 10:23:26;;;;;;;3.45;0.70;;;;;;;13.15;100.00;100927.91;4954352;28;20054;-77
2023/10/14 10:25:53;;;;;;;5.22;0.95;;;;;;;13.16;98.64;100934.97;4932976;28;20035;-77
2023/10/14 10:28:25;;;;;;;3.40;1.05;;;;;;;13.19;100.00;100932.28;4918640;28;20051;-77
2023/10/14 10:30:55;;;;;;;4.35;1.33;;;;;;;13.25;100.00;100937.56;4917829;28;20054;-77
2023/10/14 10:33:44;;;;;;;3.78;1.17;;;;;;;13.32;100.00;100932.25;4902176;28;20058;-77
2023/10/14 10:36:13;;;;;;;3.85;1.30;;;;;;;13.35;100.00;100937.53;4931854;28;20484;-77
2023/10/14 10:38:41;;;;;;;5.00;1.15;;;;;;;13.35;100.00;100930.44;4937599;28;20051;-77
2023/10/14 10:41:27;;;;;;;5.45;1.40;;;;;;;13.42;100.00;100940.13;4924360;28;20089;-77
2023/10/14 10:44:01;;;;;;;4.18;1.20;;;;;;;13.56;100.00;100940.00;4898992;28;20057;-77
2023/10/14 10:46:29;;;;;;;6.13;1.65;;;;;;;13.77;100.00;100951.31;4963378;28;20373;-77
2023/10/14 10:48:57;;;;;;;5.22;1.48;;;;;;;13.92;100.00;100953.84;4934363;28;20433;-77
2023/10/14 10:51:29;;;;;;;8.90;1.60;;;;;;;13.92;100.00;100952.97;4948526;28;20051;-77
2023/10/14 10:53:59;;;;;;;5.10;1.33;;;;;;;13.91;100.00;100965.31;4935336;28;20081;-77
2023/10/14 10:56:29;;;;;;;9.65;1.70;;;;;;;13.88;100.00;100957.41;4948930;28;20520;-77
2023/10/14 10:58:58;;;;;;;11.65;2.67;;;;;;;13.88;100.00;100960.06;4933929;28;20054;-77
2023/10/14 11:01:31;;;;;;;8.45;1.92;;;;;;;13.78;100.00;100961.91;4907050;28;20051;-77
2023/10/14 11:04:08;;;;;;;10.70;1.95;;;;;;;13.70;100.00;100968.16;4933450;28;20058;-77
2023/10/14 11:06:36;;;;;;;13.10;1.88;;;;;;;13.72;100.00;100958.41;4916692;28;20058;-76
2023/10/14 11:09:04;;;;;;;7.80;2.13;;;;;;;13.78;100.00;100959.25;4928771;28;20054;-77
2023/10/14 11:11:33;;;;;;;6.68;1.38;;;;;;;13.74;100.00;100967.22;4919806;28;20055;-76
2023/10/14 11:14:14;;;;;;;4.70;1.63;;;;;;;13.58;100.00;100977.06;4897534;28;20063;-76
2023/10/14 11:16:52;;;;;;;8.57;1.73;;;;;;;13.38;100.00;100978.09;4861038;28;20516;-77
2023/10/14 11:19:20;;;;;;;6.65;1.88;;;;;;;13.18;100.00;100978.16;4927025;28;20043;-77
2023/10/14 11:21:52;;;;;;;13.93;2.33;;;;;;;12.98;100.00;100990.59;4929495;29;20408;-77
2023/10/14 11:24:20;;;;;;;12.85;2.45;;;;;;;12.96;100.00;100982.66;4890769;28;20059;-77
2023/10/14 11:26:49;;;;;;;7.38;1.92;;;;;;;13.04;100.00;100979.97;4908206;29;20036;-77
2023/10/14 11:29:17;;;;;;;7.25;2.03;;;;;;;13.15;100.00;100987.88;4912154;29;20062;-77
2023/10/14 11:31:44;;;;;;;7.68;1.88;;;;;;;13.30;100.00;100992.22;4875292;28;20055;-77
2023/10/14 11:34:13;;;;;;;9.50;2.13;;;;;;;13.43;100.00;100999.22;4899146;29;20051;-77
2023/10/14 11:36:41;;;;;;;10.80;1.90;;;;;;;13.54;100.00;100994.75;4880853;28;20031;-77
2023/10/14 11:39:13;;;;;;;6.40;1.60;;;;;;;13.62;100.00;100998.19;4916892;29;20050;-77
2023/10/14 11:41:41;;;;;;;8.48;2.33;;;;;;;13.62;100.00;101006.16;4928945;29;20058;-76
2023/10/14 11:44:09;;;;;;;10.23;2.15;;;;;;;13.60;99.44;101013.22;4886321;29;20051;-77
2023/10/14 11:46:39;;;;;;;13.00;2.92;;;;;;;13.46;98.06;101009.81;4899478;29;20047;-77
2023/10/14 11:49:11;;;;;;;11.35;2.17;;;;;;;13.35;98.56;101001.91;4926079;28;20047;-77
2023/10/14 11:51:43;;;;;;;10.15;1.98;;;;;;;13.31;98.46;100997.53;4918421;28;20054;-77
2023/10/14 11:54:11;;;;;;;7.45;1.70;;;;;;;13.32;98.79;101006.34;4940265;29;20071;-77
2023/10/14 11:56:40;;;;;;;10.43;2.33;;;;;;;13.35;98.05;101011.63;4911267;28;20659;-76
2023/10/14 11:59:08;;;;;;;14.00;2.22;;;;;;;13.33;92.77;101019.56;4908048;28;20035;-77
2023/10/14 12:01:36;;;;;;;7.20;1.85;;;;;;;13.31;93.92;101015.16;4897108;28;20051;-76
2023/10/14 12:04:04;;;;;;;3.97;1.42;;;;;;;13.33;90.88;101008.13;4910746;29;20071;-76
2023/10/14 12:06:34;;;;;;;10.82;2.22;;;;;;;13.35;93.52;101017.78;4929579;28;20051;-77
2023/10/14 12:09:05;;;;;;;13.48;1.63;;;;;;;13.39;88.79;101023.97;4927552;29;20054;-78
2023/10/14 12:11:42;;;;;;;6.40;1.67;;;;;;;13.43;93.21;101029.22;4938682;28;20051;-77
2023/10/14 12:14:16;;;;;;;9.93;1.90;;;;;;;13.44;91.11;101036.28;4917600;28;20043;-77